KGXY

Greeley-Weld County Airport

Greeley, Colorado, USA
METAR KGXY 220956Z AUTO 01007KT 10SM CLR 11/09 A2997 RMK AO2 SLP118 T01110094
Observed Flight Rules
May-22 @ 09:56 UTC (13 minutes ago) Visual Flight Rules
Wind Visibility Clouds
10° at 7 knots 10 miles
  • Clear skies
Temperatures Readings
Current 11°C / 52°F
Dewpoint 9°C / 48°F
Humidity 88%
Altimeter 29.97" Hg
Pressure 1011.8 hPa
Elevation 1420
METAR KGXY 220956Z AUTO 01007KT 10SM CLR 11/09 A2997 RMK AO2 SLP118 T01110094
Observed Flight Rules
May-22 @ 09:56 UTC
(13 minutes ago)
VFR
Wind Visibility
10° at 7 knots 10 miles
Clouds
  • Clear skies
Temperature Dewpoint
11°C / 52°F 9°C / 48°F
Humidity Altimeter Pressure
88% 29.97" Hg 1011.8 hPa